sensor_id;sensor_type;location;lat;lon;timestamp;P1;durP1;ratioP1;P2;durP2;ratioP2
76548;SDS011;65391;52.068;4.542;2023-07-02T00:01:00;16.8;;;5.2;;
76548;SDS011;65391;52.068;4.542;2023-07-02T00:03:24;16.8;;;5.2;;
76548;SDS011;65391;52.068;4.542;2023-07-02T00:05:49;16.8;;;5.2;;
76548;SDS011;65391;52.068;4.542;2023-07-02T00:08:14;16.8;;;5.2;;
76548;SDS011;65391;52.068;4.542;2023-07-02T00:10:39;17.7;;;5.3;;
76548;SDS011;65391;52.068;4.542;2023-07-02T00:13:04;17.7;;;5.3;;
76548;SDS011;65391;52.068;4.542;2023-07-02T00:15:30;17.7;;;5.3;;
76548;SDS011;65391;52.068;4.542;2023-07-02T00:17:54;17.7;;;5.3;;
76548;SDS011;65391;52.068;4.542;2023-07-02T00:20:19;18.5;;;5.5;;
76548;SDS011;65391;52.068;4.542;2023-07-02T00:22:44;18.5;;;5.5;;
76548;SDS011;65391;52.068;4.542;2023-07-02T00:25:09;18.5;;;5.5;;
76548;SDS011;65391;52.068;4.542;2023-07-02T00:27:34;18.5;;;5.5;;
76548;SDS011;65391;52.068;4.542;2023-07-02T00:29:59;16.9;;;4.5;;
76548;SDS011;65391;52.068;4.542;2023-07-02T00:32:24;16.9;;;4.5;;
76548;SDS011;65391;52.068;4.542;2023-07-02T00:34:49;16.9;;;4.5;;
76548;SDS011;65391;52.068;4.542;2023-07-02T00:37:14;16.9;;;4.5;;
76548;SDS011;65391;52.068;4.542;2023-07-02T00:39:39;14.1;;;4.4;;
76548;SDS011;65391;52.068;4.542;2023-07-02T00:42:04;14.1;;;4.4;;
76548;SDS011;65391;52.068;4.542;2023-07-02T00:44:29;14.1;;;4.4;;
76548;SDS011;65391;52.068;4.542;2023-07-02T00:46:54;14.1;;;4.4;;
76548;SDS011;65391;52.068;4.542;2023-07-02T00:49:19;15.3;;;6;;
76548;SDS011;65391;52.068;4.542;2023-07-02T00:51:44;15.3;;;6;;
76548;SDS011;65391;52.068;4.542;2023-07-02T00:54:09;15.3;;;6;;
76548;SDS011;65391;52.068;4.542;2023-07-02T00:56:34;15.3;;;6;;
76548;SDS011;65391;52.068;4.542;2023-07-02T00:58:59;18.8;;;7;;
76548;SDS011;65391;52.068;4.542;2023-07-02T01:01:25;18.8;;;7;;
76548;SDS011;65391;52.068;4.542;2023-07-02T01:03:51;18.8;;;7;;
76548;SDS011;65391;52.068;4.542;2023-07-02T01:06:14;18.8;;;7;;
76548;SDS011;65391;52.068;4.542;2023-07-02T01:08:39;18.8;;;7;;
76548;SDS011;65391;52.068;4.542;2023-07-02T01:11:04;20;;;6.6;;
76548;SDS011;65391;52.068;4.542;2023-07-02T01:13:29;20;;;6.6;;
76548;SDS011;65391;52.068;4.542;2023-07-02T01:15:54;20;;;6.6;;
76548;SDS011;65391;52.068;4.542;2023-07-02T01:18:20;20;;;6.6;;
76548;SDS011;65391;52.068;4.542;2023-07-02T01:20:45;15.7;;;5.9;;
76548;SDS011;65391;52.068;4.542;2023-07-02T01:23:09;15.7;;;5.9;;
76548;SDS011;65391;52.068;4.542;2023-07-02T01:25:34;15.7;;;5.9;;
76548;SDS011;65391;52.068;4.542;2023-07-02T01:27:59;15.7;;;5.9;;
76548;SDS011;65391;52.068;4.542;2023-07-02T01:30:24;19.9;;;6.2;;
76548;SDS011;65391;52.068;4.542;2023-07-02T01:32:49;19.9;;;6.2;;
76548;SDS011;65391;52.068;4.542;2023-07-02T01:35:15;19.9;;;6.2;;
76548;SDS011;65391;52.068;4.542;2023-07-02T01:37:39;19.9;;;6.2;;
76548;SDS011;65391;52.068;4.542;2023-07-02T01:40:05;16.6;;;5.3;;
76548;SDS011;65391;52.068;4.542;2023-07-02T01:42:29;16.6;;;5.3;;
76548;SDS011;65391;52.068;4.542;2023-07-02T01:44:54;16.6;;;5.3;;
76548;SDS011;65391;52.068;4.542;2023-07-02T01:47:19;16.6;;;5.3;;
76548;SDS011;65391;52.068;4.542;2023-07-02T01:49:45;20;;;6.1;;
76548;SDS011;65391;52.068;4.542;2023-07-02T01:52:09;20;;;6.1;;
76548;SDS011;65391;52.068;4.542;2023-07-02T01:54:35;20;;;6.1;;
76548;SDS011;65391;52.068;4.542;2023-07-02T01:57:00;20;;;6.1;;
76548;SDS011;65391;52.068;4.542;2023-07-02T01:59:25;18.3;;;6.4;;
76548;SDS011;65391;52.068;4.542;2023-07-02T02:01:49;18.3;;;6.4;;
76548;SDS011;65391;52.068;4.542;2023-07-02T02:04:14;18.3;;;6.4;;
76548;SDS011;65391;52.068;4.542;2023-07-02T02:06:40;18.3;;;6.4;;
76548;SDS011;65391;52.068;4.542;2023-07-02T02:09:05;18.6;;;7.4;;
76548;SDS011;65391;52.068;4.542;2023-07-02T02:11:30;18.6;;;7.4;;
76548;SDS011;65391;52.068;4.542;2023-07-02T02:13:54;18.6;;;7.4;;
76548;SDS011;65391;52.068;4.542;2023-07-02T02:16:20;18.6;;;7.4;;
76548;SDS011;65391;52.068;4.542;2023-07-02T02:18:45;18.6;;;7.4;;
76548;SDS011;65391;52.068;4.542;2023-07-02T02:21:09;19.3;;;8;;
76548;SDS011;65391;52.068;4.542;2023-07-02T02:23:35;19.3;;;8;;
76548;SDS011;65391;52.068;4.542;2023-07-02T02:26:00;19.3;;;8;;
76548;SDS011;65391;52.068;4.542;2023-07-02T02:28:25;19.3;;;8;;
76548;SDS011;65391;52.068;4.542;2023-07-02T02:30:50;20.2;;;6.8;;
76548;SDS011;65391;52.068;4.542;2023-07-02T02:33:15;20.2;;;6.8;;
76548;SDS011;65391;52.068;4.542;2023-07-02T02:35:40;20.2;;;6.8;;
76548;SDS011;65391;52.068;4.542;2023-07-02T02:38:05;20.2;;;6.8;;
76548;SDS011;65391;52.068;4.542;2023-07-02T02:40:30;20.6;;;7.3;;
76548;SDS011;65391;52.068;4.542;2023-07-02T02:42:55;20.6;;;7.3;;
76548;SDS011;65391;52.068;4.542;2023-07-02T02:45:20;20.6;;;7.3;;
76548;SDS011;65391;52.068;4.542;2023-07-02T02:47:45;20.6;;;7.3;;
76548;SDS011;65391;52.068;4.542;2023-07-02T02:50:11;20.7;;;7.2;;
76548;SDS011;65391;52.068;4.542;2023-07-02T02:52:35;20.7;;;7.2;;
76548;SDS011;65391;52.068;4.542;2023-07-02T02:55:00;20.7;;;7.2;;
76548;SDS011;65391;52.068;4.542;2023-07-02T02:57:25;20.7;;;7.2;;
76548;SDS011;65391;52.068;4.542;2023-07-02T02:59:50;20.6;;;7.1;;
76548;SDS011;65391;52.068;4.542;2023-07-02T03:02:15;20.6;;;7.1;;
76548;SDS011;65391;52.068;4.542;2023-07-02T03:04:40;20.6;;;7.1;;
76548;SDS011;65391;52.068;4.542;2023-07-02T03:07:05;20.6;;;7.1;;
76548;SDS011;65391;52.068;4.542;2023-07-02T03:09:30;21;;;8;;
76548;SDS011;65391;52.068;4.542;2023-07-02T03:11:55;21;;;8;;
76548;SDS011;65391;52.068;4.542;2023-07-02T03:14:20;21;;;8;;
76548;SDS011;65391;52.068;4.542;2023-07-02T03:16:45;21;;;8;;
76548;SDS011;65391;52.068;4.542;2023-07-02T03:19:10;21.6;;;8.5;;
76548;SDS011;65391;52.068;4.542;2023-07-02T03:21:35;21.6;;;8.5;;
76548;SDS011;65391;52.068;4.542;2023-07-02T03:24:00;21.6;;;8.5;;
76548;SDS011;65391;52.068;4.542;2023-07-02T03:26:25;21.6;;;8.5;;
76548;SDS011;65391;52.068;4.542;2023-07-02T03:28:50;21.6;;;8.5;;
76548;SDS011;65391;52.068;4.542;2023-07-02T03:31:15;19.6;;;6.5;;
76548;SDS011;65391;52.068;4.542;2023-07-02T03:33:40;19.6;;;6.5;;
76548;SDS011;65391;52.068;4.542;2023-07-02T03:36:05;19.6;;;6.5;;
76548;SDS011;65391;52.068;4.542;2023-07-02T03:38:30;19.6;;;6.5;;
76548;SDS011;65391;52.068;4.542;2023-07-02T03:40:55;19.9;;;6.8;;
76548;SDS011;65391;52.068;4.542;2023-07-02T03:43:20;19.9;;;6.8;;
76548;SDS011;65391;52.068;4.542;2023-07-02T03:45:45;19.9;;;6.8;;
76548;SDS011;65391;52.068;4.542;2023-07-02T03:48:10;19.9;;;6.8;;
76548;SDS011;65391;52.068;4.542;2023-07-02T03:50:35;19.5;;;6.9;;
76548;SDS011;65391;52.068;4.542;2023-07-02T03:53:00;19.5;;;6.9;;
76548;SDS011;65391;52.068;4.542;2023-07-02T03:55:25;19.5;;;6.9;;
76548;SDS011;65391;52.068;4.542;2023-07-02T03:57:50;19.5;;;6.9;;
76548;SDS011;65391;52.068;4.542;2023-07-02T04:00:15;19.9;;;7.2;;
76548;SDS011;65391;52.068;4.542;2023-07-02T04:02:40;19.9;;;7.2;;
76548;SDS011;65391;52.068;4.542;2023-07-02T04:05:05;19.9;;;7.2;;
76548;SDS011;65391;52.068;4.542;2023-07-02T04:07:30;19.9;;;7.2;;
76548;SDS011;65391;52.068;4.542;2023-07-02T04:09:55;17.5;;;5.8;;
76548;SDS011;65391;52.068;4.542;2023-07-02T04:12:20;17.5;;;5.8;;
76548;SDS011;65391;52.068;4.542;2023-07-02T04:14:45;17.5;;;5.8;;
76548;SDS011;65391;52.068;4.542;2023-07-02T04:17:10;17.5;;;5.8;;
76548;SDS011;65391;52.068;4.542;2023-07-02T04:19:35;16.1;;;4.9;;
76548;SDS011;65391;52.068;4.542;2023-07-02T04:22:00;16.1;;;4.9;;
76548;SDS011;65391;52.068;4.542;2023-07-02T04:24:25;16.1;;;4.9;;
76548;SDS011;65391;52.068;4.542;2023-07-02T04:26:50;16.1;;;4.9;;
76548;SDS011;65391;52.068;4.542;2023-07-02T04:29:15;15.9;;;5.5;;
76548;SDS011;65391;52.068;4.542;2023-07-02T04:31:40;15.9;;;5.5;;
76548;SDS011;65391;52.068;4.542;2023-07-02T04:34:05;15.9;;;5.5;;
76548;SDS011;65391;52.068;4.542;2023-07-02T04:36:30;15.9;;;5.5;;
76548;SDS011;65391;52.068;4.542;2023-07-02T04:38:55;15.9;;;5.5;;
76548;SDS011;65391;52.068;4.542;2023-07-02T04:41:20;16.2;;;5.2;;
76548;SDS011;65391;52.068;4.542;2023-07-02T04:43:45;16.2;;;5.2;;
76548;SDS011;65391;52.068;4.542;2023-07-02T04:46:10;16.2;;;5.2;;
76548;SDS011;65391;52.068;4.542;2023-07-02T04:48:35;16.2;;;5.2;;
76548;SDS011;65391;52.068;4.542;2023-07-02T04:51:00;18.5;;;5.5;;
76548;SDS011;65391;52.068;4.542;2023-07-02T04:53:25;18.5;;;5.5;;
76548;SDS011;65391;52.068;4.542;2023-07-02T04:55:50;18.5;;;5.5;;
76548;SDS011;65391;52.068;4.542;2023-07-02T04:58:15;18.5;;;5.5;;
76548;SDS011;65391;52.068;4.542;2023-07-02T05:00:40;16.7;;;5.6;;
76548;SDS011;65391;52.068;4.542;2023-07-02T05:03:05;16.7;;;5.6;;
76548;SDS011;65391;52.068;4.542;2023-07-02T05:05:30;16.7;;;5.6;;
76548;SDS011;65391;52.068;4.542;2023-07-02T05:07:55;16.7;;;5.6;;
76548;SDS011;65391;52.068;4.542;2023-07-02T05:10:20;12.4;;;3.7;;
76548;SDS011;65391;52.068;4.542;2023-07-02T05:12:45;12.4;;;3.7;;
76548;SDS011;65391;52.068;4.542;2023-07-02T05:15:10;12.4;;;3.7;;
76548;SDS011;65391;52.068;4.542;2023-07-02T05:17:35;12.4;;;3.7;;
76548;SDS011;65391;52.068;4.542;2023-07-02T05:20:00;17;;;4.9;;
76548;SDS011;65391;52.068;4.542;2023-07-02T05:22:25;17;;;4.9;;
76548;SDS011;65391;52.068;4.542;2023-07-02T05:24:50;17;;;4.9;;
76548;SDS011;65391;52.068;4.542;2023-07-02T05:27:15;17;;;4.9;;
76548;SDS011;65391;52.068;4.542;2023-07-02T05:29:40;13.2;;;5;;
76548;SDS011;65391;52.068;4.542;2023-07-02T05:32:05;13.2;;;5;;
76548;SDS011;65391;52.068;4.542;2023-07-02T05:34:30;13.2;;;5;;
76548;SDS011;65391;52.068;4.542;2023-07-02T05:36:55;13.2;;;5;;
76548;SDS011;65391;52.068;4.542;2023-07-02T05:39:20;12.8;;;4.9;;
76548;SDS011;65391;52.068;4.542;2023-07-02T05:41:45;12.8;;;4.9;;
76548;SDS011;65391;52.068;4.542;2023-07-02T05:44:10;12.8;;;4.9;;
76548;SDS011;65391;52.068;4.542;2023-07-02T05:46:35;12.8;;;4.9;;
76548;SDS011;65391;52.068;4.542;2023-07-02T05:49:00;12.8;;;4.9;;
76548;SDS011;65391;52.068;4.542;2023-07-02T05:51:25;16.4;;;5;;
76548;SDS011;65391;52.068;4.542;2023-07-02T05:53:50;16.4;;;5;;
76548;SDS011;65391;52.068;4.542;2023-07-02T05:56:15;16.4;;;5;;
76548;SDS011;65391;52.068;4.542;2023-07-02T05:58:40;16.4;;;5;;
76548;SDS011;65391;52.068;4.542;2023-07-02T06:01:05;16.6;;;4.7;;
76548;SDS011;65391;52.068;4.542;2023-07-02T06:03:30;16.6;;;4.7;;
76548;SDS011;65391;52.068;4.542;2023-07-02T06:05:55;16.6;;;4.7;;
76548;SDS011;65391;52.068;4.542;2023-07-02T06:08:20;16.6;;;4.7;;
76548;SDS011;65391;52.068;4.542;2023-07-02T06:10:46;16.9;;;4.2;;
76548;SDS011;65391;52.068;4.542;2023-07-02T06:13:10;16.9;;;4.2;;
76548;SDS011;65391;52.068;4.542;2023-07-02T06:15:35;16.9;;;4.2;;
76548;SDS011;65391;52.068;4.542;2023-07-02T06:18:00;16.9;;;4.2;;
76548;SDS011;65391;52.068;4.542;2023-07-02T06:20:25;17.3;;;4.9;;
76548;SDS011;65391;52.068;4.542;2023-07-02T06:22:50;17.3;;;4.9;;
76548;SDS011;65391;52.068;4.542;2023-07-02T06:25:15;17.3;;;4.9;;
76548;SDS011;65391;52.068;4.542;2023-07-02T06:27:40;17.3;;;4.9;;
76548;SDS011;65391;52.068;4.542;2023-07-02T06:30:06;13.8;;;3.8;;
76548;SDS011;65391;52.068;4.542;2023-07-02T06:32:30;13.8;;;3.8;;
76548;SDS011;65391;52.068;4.542;2023-07-02T06:34:55;13.8;;;3.8;;
76548;SDS011;65391;52.068;4.542;2023-07-02T06:37:20;13.8;;;3.8;;
76548;SDS011;65391;52.068;4.542;2023-07-02T06:39:45;11.9;;;4;;
76548;SDS011;65391;52.068;4.542;2023-07-02T06:42:10;11.9;;;4;;
76548;SDS011;65391;52.068;4.542;2023-07-02T06:44:35;11.9;;;4;;
76548;SDS011;65391;52.068;4.542;2023-07-02T06:47:00;11.9;;;4;;
76548;SDS011;65391;52.068;4.542;2023-07-02T06:49:25;14.9;;;3.6;;
76548;SDS011;65391;52.068;4.542;2023-07-02T06:51:50;14.9;;;3.6;;
76548;SDS011;65391;52.068;4.542;2023-07-02T06:54:15;14.9;;;3.6;;
76548;SDS011;65391;52.068;4.542;2023-07-02T06:56:40;14.9;;;3.6;;
76548;SDS011;65391;52.068;4.542;2023-07-02T06:59:06;14.9;;;3.6;;
76548;SDS011;65391;52.068;4.542;2023-07-02T07:01:30;9;;;3.4;;
76548;SDS011;65391;52.068;4.542;2023-07-02T07:03:55;9;;;3.4;;
76548;SDS011;65391;52.068;4.542;2023-07-02T07:06:20;9;;;3.4;;
76548;SDS011;65391;52.068;4.542;2023-07-02T07:08:45;9;;;3.4;;
76548;SDS011;65391;52.068;4.542;2023-07-02T07:11:10;11.8;;;3.3;;
76548;SDS011;65391;52.068;4.542;2023-07-02T07:13:35;11.8;;;3.3;;
76548;SDS011;65391;52.068;4.542;2023-07-02T07:16:00;11.8;;;3.3;;
76548;SDS011;65391;52.068;4.542;2023-07-02T07:18:25;11.8;;;3.3;;
76548;SDS011;65391;52.068;4.542;2023-07-02T07:20:50;13.7;;;4.6;;
76548;SDS011;65391;52.068;4.542;2023-07-02T07:23:15;13.7;;;4.6;;
76548;SDS011;65391;52.068;4.542;2023-07-02T07:25:40;13.7;;;4.6;;
76548;SDS011;65391;52.068;4.542;2023-07-02T07:28:05;13.7;;;4.6;;
76548;SDS011;65391;52.068;4.542;2023-07-02T07:30:30;10.8;;;3.8;;
76548;SDS011;65391;52.068;4.542;2023-07-02T07:32:55;10.8;;;3.8;;
76548;SDS011;65391;52.068;4.542;2023-07-02T07:35:21;10.8;;;3.8;;
76548;SDS011;65391;52.068;4.542;2023-07-02T07:37:45;10.8;;;3.8;;
76548;SDS011;65391;52.068;4.542;2023-07-02T07:40:11;10.6;;;3.5;;
76548;SDS011;65391;52.068;4.542;2023-07-02T07:42:35;10.6;;;3.5;;
76548;SDS011;65391;52.068;4.542;2023-07-02T07:45:01;10.6;;;3.5;;
76548;SDS011;65391;52.068;4.542;2023-07-02T07:47:25;10.6;;;3.5;;
76548;SDS011;65391;52.068;4.542;2023-07-02T07:49:50;10.9;;;4.1;;
76548;SDS011;65391;52.068;4.542;2023-07-02T07:52:15;10.9;;;4.1;;
76548;SDS011;65391;52.068;4.542;2023-07-02T07:54:40;10.9;;;4.1;;
76548;SDS011;65391;52.068;4.542;2023-07-02T07:57:06;10.9;;;4.1;;
76548;SDS011;65391;52.068;4.542;2023-07-02T07:59:30;10.9;;;4.1;;
76548;SDS011;65391;52.068;4.542;2023-07-02T08:01:55;11.4;;;3.3;;
76548;SDS011;65391;52.068;4.542;2023-07-02T08:04:20;11.4;;;3.3;;
76548;SDS011;65391;52.068;4.542;2023-07-02T08:06:45;11.4;;;3.3;;
76548;SDS011;65391;52.068;4.542;2023-07-02T08:09:10;11.4;;;3.3;;
76548;SDS011;65391;52.068;4.542;2023-07-02T08:11:35;8;;;3.2;;
76548;SDS011;65391;52.068;4.542;2023-07-02T08:14:00;8;;;3.2;;
76548;SDS011;65391;52.068;4.542;2023-07-02T08:16:25;8;;;3.2;;
76548;SDS011;65391;52.068;4.542;2023-07-02T08:18:50;8;;;3.2;;
76548;SDS011;65391;52.068;4.542;2023-07-02T08:21:15;12.5;;;3.4;;
76548;SDS011;65391;52.068;4.542;2023-07-02T08:23:42;12.5;;;3.4;;
76548;SDS011;65391;52.068;4.542;2023-07-02T08:26:05;12.5;;;3.4;;
76548;SDS011;65391;52.068;4.542;2023-07-02T08:28:30;12.5;;;3.4;;
76548;SDS011;65391;52.068;4.542;2023-07-02T08:30:55;6;;;2.2;;
76548;SDS011;65391;52.068;4.542;2023-07-02T08:33:20;6;;;2.2;;
76548;SDS011;65391;52.068;4.542;2023-07-02T08:35:45;6;;;2.2;;
76548;SDS011;65391;52.068;4.542;2023-07-02T08:38:10;6;;;2.2;;
76548;SDS011;65391;52.068;4.542;2023-07-02T08:40:35;7.7;;;3.4;;
76548;SDS011;65391;52.068;4.542;2023-07-02T08:43:00;7.7;;;3.4;;
76548;SDS011;65391;52.068;4.542;2023-07-02T08:45:25;7.7;;;3.4;;
76548;SDS011;65391;52.068;4.542;2023-07-02T08:47:50;7.7;;;3.4;;
76548;SDS011;65391;52.068;4.542;2023-07-02T08:50:15;10.2;;;3.1;;
76548;SDS011;65391;52.068;4.542;2023-07-02T08:52:40;10.2;;;3.1;;
76548;SDS011;65391;52.068;4.542;2023-07-02T08:55:06;10.2;;;3.1;;
76548;SDS011;65391;52.068;4.542;2023-07-02T08:57:30;10.2;;;3.1;;
76548;SDS011;65391;52.068;4.542;2023-07-02T08:59:56;9.5;;;3.4;;
76548;SDS011;65391;52.068;4.542;2023-07-02T09:02:30;9.5;;;3.4;;
76548;SDS011;65391;52.068;4.542;2023-07-02T09:04:45;9.5;;;3.4;;
76548;SDS011;65391;52.068;4.542;2023-07-02T09:07:11;9.5;;;3.4;;
76548;SDS011;65391;52.068;4.542;2023-07-02T09:09:44;9.5;;;3.4;;
76548;SDS011;65391;52.068;4.542;2023-07-02T09:12:01;11.8;;;3.4;;
76548;SDS011;65391;52.068;4.542;2023-07-02T09:14:26;11.8;;;3.4;;
76548;SDS011;65391;52.068;4.542;2023-07-02T09:17:01;11.8;;;3.4;;
76548;SDS011;65391;52.068;4.542;2023-07-02T09:19:15;11.8;;;3.4;;
76548;SDS011;65391;52.068;4.542;2023-07-02T09:21:41;12.7;;;3.2;;
76548;SDS011;65391;52.068;4.542;2023-07-02T09:24:22;12.7;;;3.2;;
76548;SDS011;65391;52.068;4.542;2023-07-02T09:26:30;12.7;;;3.2;;
76548;SDS011;65391;52.068;4.542;2023-07-02T09:29:00;12.7;;;3.2;;
76548;SDS011;65391;52.068;4.542;2023-07-02T09:31:20;8.3;;;2.7;;
76548;SDS011;65391;52.068;4.542;2023-07-02T09:33:45;8.3;;;2.7;;
76548;SDS011;65391;52.068;4.542;2023-07-02T09:36:11;8.3;;;2.7;;
76548;SDS011;65391;52.068;4.542;2023-07-02T09:38:35;8.3;;;2.7;;
76548;SDS011;65391;52.068;4.542;2023-07-02T09:41:00;7.2;;;2.9;;
76548;SDS011;65391;52.068;4.542;2023-07-02T09:43:25;7.2;;;2.9;;
76548;SDS011;65391;52.068;4.542;2023-07-02T09:45:52;7.2;;;2.9;;
76548;SDS011;65391;52.068;4.542;2023-07-02T09:48:16;7.2;;;2.9;;
76548;SDS011;65391;52.068;4.542;2023-07-02T09:50:41;10;;;3.2;;
76548;SDS011;65391;52.068;4.542;2023-07-02T09:53:06;10;;;3.2;;
76548;SDS011;65391;52.068;4.542;2023-07-02T09:55:30;10;;;3.2;;
76548;SDS011;65391;52.068;4.542;2023-07-02T09:57:55;10;;;3.2;;
76548;SDS011;65391;52.068;4.542;2023-07-02T10:00:20;5.9;;;2.1;;
76548;SDS011;65391;52.068;4.542;2023-07-02T10:02:48;5.9;;;2.1;;
76548;SDS011;65391;52.068;4.542;2023-07-02T10:05:10;5.9;;;2.1;;
76548;SDS011;65391;52.068;4.542;2023-07-02T10:07:35;5.9;;;2.1;;
76548;SDS011;65391;52.068;4.542;2023-07-02T10:10:01;6.1;;;2.4;;
76548;SDS011;65391;52.068;4.542;2023-07-02T10:12:26;6.1;;;2.4;;
76548;SDS011;65391;52.068;4.542;2023-07-02T10:14:51;6.1;;;2.4;;
76548;SDS011;65391;52.068;4.542;2023-07-02T10:17:24;6.1;;;2.4;;
76548;SDS011;65391;52.068;4.542;2023-07-02T10:19:50;6.1;;;2.4;;
76548;SDS011;65391;52.068;4.542;2023-07-02T10:22:05;6;;;2.6;;
76548;SDS011;65391;52.068;4.542;2023-07-02T10:24:30;6;;;2.6;;
76548;SDS011;65391;52.068;4.542;2023-07-02T10:26:56;6;;;2.6;;
76548;SDS011;65391;52.068;4.542;2023-07-02T10:29:22;6;;;2.6;;
76548;SDS011;65391;52.068;4.542;2023-07-02T10:31:48;7.3;;;3.2;;
76548;SDS011;65391;52.068;4.542;2023-07-02T10:34:10;7.3;;;3.2;;
76548;SDS011;65391;52.068;4.542;2023-07-02T10:36:36;7.3;;;3.2;;
76548;SDS011;65391;52.068;4.542;2023-07-02T10:39:01;7.3;;;3.2;;
76548;SDS011;65391;52.068;4.542;2023-07-02T10:41:27;9.5;;;2.8;;
76548;SDS011;65391;52.068;4.542;2023-07-02T10:43:51;9.5;;;2.8;;
76548;SDS011;65391;52.068;4.542;2023-07-02T10:46:18;9.5;;;2.8;;
76548;SDS011;65391;52.068;4.542;2023-07-02T10:48:50;9.5;;;2.8;;
76548;SDS011;65391;52.068;4.542;2023-07-02T10:51:13;6.8;;;2.5;;
76548;SDS011;65391;52.068;4.542;2023-07-02T10:53:31;6.8;;;2.5;;
76548;SDS011;65391;52.068;4.542;2023-07-02T10:55:56;6.8;;;2.5;;
76548;SDS011;65391;52.068;4.542;2023-07-02T10:58:21;6.8;;;2.5;;
76548;SDS011;65391;52.068;4.542;2023-07-02T11:00:46;7.4;;;2.8;;
76548;SDS011;65391;52.068;4.542;2023-07-02T11:03:18;7.4;;;2.8;;
76548;SDS011;65391;52.068;4.542;2023-07-02T11:05:36;7.4;;;2.8;;
76548;SDS011;65391;52.068;4.542;2023-07-02T11:08:08;7.4;;;2.8;;
76548;SDS011;65391;52.068;4.542;2023-07-02T11:10:26;6.6;;;2.9;;
76548;SDS011;65391;52.068;4.542;2023-07-02T11:12:51;6.6;;;2.9;;
76548;SDS011;65391;52.068;4.542;2023-07-02T11:15:16;6.6;;;2.9;;
76548;SDS011;65391;52.068;4.542;2023-07-02T11:17:41;6.6;;;2.9;;
76548;SDS011;65391;52.068;4.542;2023-07-02T11:20:06;8.3;;;3.1;;
76548;SDS011;65391;52.068;4.542;2023-07-02T11:22:31;8.3;;;3.1;;
76548;SDS011;65391;52.068;4.542;2023-07-02T11:24:56;8.3;;;3.1;;
76548;SDS011;65391;52.068;4.542;2023-07-02T11:27:21;8.3;;;3.1;;
76548;SDS011;65391;52.068;4.542;2023-07-02T11:29:46;8.3;;;3.1;;
76548;SDS011;65391;52.068;4.542;2023-07-02T11:32:11;5.7;;;3.3;;
76548;SDS011;65391;52.068;4.542;2023-07-02T11:34:36;5.7;;;3.3;;
76548;SDS011;65391;52.068;4.542;2023-07-02T11:37:01;5.7;;;3.3;;
76548;SDS011;65391;52.068;4.542;2023-07-02T11:39:26;5.7;;;3.3;;
76548;SDS011;65391;52.068;4.542;2023-07-02T11:41:51;7.7;;;3;;
76548;SDS011;65391;52.068;4.542;2023-07-02T11:44:16;7.7;;;3;;
76548;SDS011;65391;52.068;4.542;2023-07-02T11:46:41;7.7;;;3;;
76548;SDS011;65391;52.068;4.542;2023-07-02T11:49:06;7.7;;;3;;
76548;SDS011;65391;52.068;4.542;2023-07-02T11:51:31;6.5;;;2.8;;
76548;SDS011;65391;52.068;4.542;2023-07-02T11:53:56;6.5;;;2.8;;
76548;SDS011;65391;52.068;4.542;2023-07-02T11:56:21;6.5;;;2.8;;
76548;SDS011;65391;52.068;4.542;2023-07-02T11:58:46;6.5;;;2.8;;
76548;SDS011;65391;52.068;4.542;2023-07-02T12:01:11;9.1;;;3.7;;
76548;SDS011;65391;52.068;4.542;2023-07-02T12:03:36;9.1;;;3.7;;
76548;SDS011;65391;52.068;4.542;2023-07-02T12:06:01;9.1;;;3.7;;
76548;SDS011;65391;52.068;4.542;2023-07-02T12:08:26;9.1;;;3.7;;
76548;SDS011;65391;52.068;4.542;2023-07-02T12:10:51;7;;;3;;
76548;SDS011;65391;52.068;4.542;2023-07-02T12:13:16;7;;;3;;
76548;SDS011;65391;52.068;4.542;2023-07-02T12:15:41;7;;;3;;
76548;SDS011;65391;52.068;4.542;2023-07-02T12:18:06;7;;;3;;
76548;SDS011;65391;52.068;4.542;2023-07-02T12:20:31;8.6;;;3.3;;
76548;SDS011;65391;52.068;4.542;2023-07-02T12:22:56;8.6;;;3.3;;
76548;SDS011;65391;52.068;4.542;2023-07-02T12:25:21;8.6;;;3.3;;
76548;SDS011;65391;52.068;4.542;2023-07-02T12:27:46;8.6;;;3.3;;
76548;SDS011;65391;52.068;4.542;2023-07-02T12:30:11;10.7;;;4.1;;
76548;SDS011;65391;52.068;4.542;2023-07-02T12:32:37;10.7;;;4.1;;
76548;SDS011;65391;52.068;4.542;2023-07-02T12:35:01;10.7;;;4.1;;
76548;SDS011;65391;52.068;4.542;2023-07-02T12:37:26;10.7;;;4.1;;
76548;SDS011;65391;52.068;4.542;2023-07-02T12:39:51;10.7;;;4.1;;
76548;SDS011;65391;52.068;4.542;2023-07-02T12:42:16;7.3;;;3.8;;
76548;SDS011;65391;52.068;4.542;2023-07-02T12:44:41;7.3;;;3.8;;
76548;SDS011;65391;52.068;4.542;2023-07-02T12:47:06;7.3;;;3.8;;
76548;SDS011;65391;52.068;4.542;2023-07-02T12:49:31;7.3;;;3.8;;
76548;SDS011;65391;52.068;4.542;2023-07-02T12:51:56;8.1;;;3.4;;
76548;SDS011;65391;52.068;4.542;2023-07-02T12:54:21;8.1;;;3.4;;
76548;SDS011;65391;52.068;4.542;2023-07-02T12:56:46;8.1;;;3.4;;
76548;SDS011;65391;52.068;4.542;2023-07-02T12:59:11;8.1;;;3.4;;
76548;SDS011;65391;52.068;4.542;2023-07-02T13:01:36;10.1;;;3.8;;
76548;SDS011;65391;52.068;4.542;2023-07-02T13:04:01;10.1;;;3.8;;
76548;SDS011;65391;52.068;4.542;2023-07-02T13:06:26;10.1;;;3.8;;
76548;SDS011;65391;52.068;4.542;2023-07-02T13:08:51;10.1;;;3.8;;
76548;SDS011;65391;52.068;4.542;2023-07-02T13:11:16;10.2;;;3.1;;
76548;SDS011;65391;52.068;4.542;2023-07-02T13:13:41;10.2;;;3.1;;
76548;SDS011;65391;52.068;4.542;2023-07-02T13:16:06;10.2;;;3.1;;
76548;SDS011;65391;52.068;4.542;2023-07-02T13:18:31;10.2;;;3.1;;
76548;SDS011;65391;52.068;4.542;2023-07-02T13:20:56;8.8;;;3.2;;
76548;SDS011;65391;52.068;4.542;2023-07-02T13:23:21;8.8;;;3.2;;
76548;SDS011;65391;52.068;4.542;2023-07-02T13:25:46;8.8;;;3.2;;
76548;SDS011;65391;52.068;4.542;2023-07-02T13:28:12;8.8;;;3.2;;
76548;SDS011;65391;52.068;4.542;2023-07-02T13:30:36;5.7;;;2.9;;
76548;SDS011;65391;52.068;4.542;2023-07-02T13:33:01;5.7;;;2.9;;
76548;SDS011;65391;52.068;4.542;2023-07-02T13:35:26;5.7;;;2.9;;
76548;SDS011;65391;52.068;4.542;2023-07-02T13:37:51;5.7;;;2.9;;
76548;SDS011;65391;52.068;4.542;2023-07-02T13:40:16;9.7;;;3.8;;
76548;SDS011;65391;52.068;4.542;2023-07-02T13:42:41;9.7;;;3.8;;
76548;SDS011;65391;52.068;4.542;2023-07-02T13:45:08;9.7;;;3.8;;
76548;SDS011;65391;52.068;4.542;2023-07-02T13:47:31;9.7;;;3.8;;
76548;SDS011;65391;52.068;4.542;2023-07-02T13:49:56;9.7;;;3.8;;
76548;SDS011;65391;52.068;4.542;2023-07-02T13:52:21;5.6;;;3.2;;
76548;SDS011;65391;52.068;4.542;2023-07-02T13:54:46;5.6;;;3.2;;
76548;SDS011;65391;52.068;4.542;2023-07-02T13:57:11;5.6;;;3.2;;
76548;SDS011;65391;52.068;4.542;2023-07-02T13:59:36;5.6;;;3.2;;
76548;SDS011;65391;52.068;4.542;2023-07-02T14:02:01;7.6;;;3.1;;
76548;SDS011;65391;52.068;4.542;2023-07-02T14:04:26;7.6;;;3.1;;
76548;SDS011;65391;52.068;4.542;2023-07-02T14:06:51;7.6;;;3.1;;
76548;SDS011;65391;52.068;4.542;2023-07-02T14:09:16;7.6;;;3.1;;
76548;SDS011;65391;52.068;4.542;2023-07-02T14:11:41;6;;;2.6;;
76548;SDS011;65391;52.068;4.542;2023-07-02T14:14:06;6;;;2.6;;
76548;SDS011;65391;52.068;4.542;2023-07-02T14:16:31;6;;;2.6;;
76548;SDS011;65391;52.068;4.542;2023-07-02T14:18:56;6;;;2.6;;
76548;SDS011;65391;52.068;4.542;2023-07-02T14:21:21;5.7;;;2.3;;
76548;SDS011;65391;52.068;4.542;2023-07-02T14:23:46;5.7;;;2.3;;
76548;SDS011;65391;52.068;4.542;2023-07-02T14:26:11;5.7;;;2.3;;
76548;SDS011;65391;52.068;4.542;2023-07-02T14:28:37;5.7;;;2.3;;
76548;SDS011;65391;52.068;4.542;2023-07-02T14:31:02;7.2;;;2.9;;
76548;SDS011;65391;52.068;4.542;2023-07-02T14:33:27;7.2;;;2.9;;
76548;SDS011;65391;52.068;4.542;2023-07-02T14:35:51;7.2;;;2.9;;
76548;SDS011;65391;52.068;4.542;2023-07-02T14:38:16;7.2;;;2.9;;
76548;SDS011;65391;52.068;4.542;2023-07-02T14:40:41;10.1;;;3;;
76548;SDS011;65391;52.068;4.542;2023-07-02T14:43:06;10.1;;;3;;
76548;SDS011;65391;52.068;4.542;2023-07-02T14:45:31;10.1;;;3;;
76548;SDS011;65391;52.068;4.542;2023-07-02T14:47:56;10.1;;;3;;
76548;SDS011;65391;52.068;4.542;2023-07-02T14:50:21;6.5;;;2.8;;
76548;SDS011;65391;52.068;4.542;2023-07-02T14:52:46;6.5;;;2.8;;
76548;SDS011;65391;52.068;4.542;2023-07-02T14:55:11;6.5;;;2.8;;
76548;SDS011;65391;52.068;4.542;2023-07-02T14:57:36;6.5;;;2.8;;